Time;durP1;ratioP1;P1;durP2;ratioP2;P2;SDS_P1;SDS_P2;PMS_P1;PMS_P2;Temp;Humidity;BMP_temperature;BMP_pressure;BME280_temperature;BME280_humidity;BME280_pressure;Samples;Min_cycle;Max_cycle;Signal;HPM_P1;HPM_P2
2024/01/26 00:00:04;;;;;;;17.13;8.47;;;10.00;99.90;;;;;;5093576;28;20266;-41
2024/01/26 00:02:30;;;;;;;15.07;8.73;;;10.00;99.90;;;;;;5093772;28;20190;-41
2024/01/26 00:04:55;;;;;;;13.57;8.17;;;10.00;99.90;;;;;;5092230;28;20540;-43
2024/01/26 00:07:21;;;;;;;13.33;7.60;;;10.00;99.90;;;;;;5093326;28;20606;-42
2024/01/26 00:09:46;;;;;;;12.03;8.03;;;10.00;99.90;;;;;;5093454;28;20638;-42
2024/01/26 00:12:12;;;;;;;12.20;7.47;;;10.00;99.90;;;;;;5093666;28;20726;-42
2024/01/26 00:14:38;;;;;;;11.10;7.63;;;10.00;99.90;;;;;;5093215;28;20214;-43
2024/01/26 00:17:03;;;;;;;10.47;7.30;;;10.00;99.90;;;;;;5093977;28;20296;-41
2024/01/26 00:19:29;;;;;;;11.83;7.10;;;10.00;99.90;;;;;;5097499;28;20288;-43
2024/01/26 00:21:55;;;;;;;10.47;7.37;;;10.00;99.90;;;;;;5097747;28;20182;-44
2024/01/26 00:24:20;;;;;;;9.23;7.10;;;10.00;99.90;;;;;;5096511;28;20262;-43
2024/01/26 00:27:17;;;;;;;9.30;6.67;;;10.10;99.90;;;;;;5097323;28;20212;-42
2024/01/26 00:29:42;;;;;;;11.03;7.67;;;10.10;99.90;;;;;;5097206;28;20651;-42
2024/01/26 00:32:08;;;;;;;12.30;7.10;;;10.10;99.90;;;;;;5097265;28;20193;-43
2024/01/26 00:34:35;;;;;;;8.73;6.90;;;10.00;99.90;;;;;;5097415;28;20207;-41
2024/01/26 00:37:04;;;;;;;9.80;6.93;;;10.10;99.90;;;;;;5097360;28;20205;-43
2024/01/26 00:39:33;;;;;;;10.23;7.00;;;10.10;99.90;;;;;;5097462;28;20182;-43
2024/01/26 00:42:01;;;;;;;9.53;6.67;;;10.10;99.90;;;;;;5097280;28;20186;-42
2024/01/26 00:44:27;;;;;;;12.37;6.43;;;10.10;99.90;;;;;;5097215;28;20517;-43
2024/01/26 00:46:52;;;;;;;13.63;6.80;;;10.20;99.90;;;;;;5096787;28;20211;-43
2024/01/26 00:49:20;;;;;;;8.47;6.37;;;10.20;99.90;;;;;;5097132;28;20204;-43
2024/01/26 00:51:45;;;;;;;9.53;6.17;;;10.20;99.90;;;;;;5097124;28;20203;-44
2024/01/26 00:54:11;;;;;;;9.80;5.87;;;10.30;99.90;;;;;;5096749;28;20229;-42
2024/01/26 00:56:37;;;;;;;8.30;6.60;;;10.30;99.90;;;;;;5096642;28;20225;-42
2024/01/26 00:59:02;;;;;;;11.93;6.87;;;10.30;99.90;;;;;;5096662;28;20228;-44
2024/01/26 01:01:28;;;;;;;10.20;5.77;;;10.30;99.90;;;;;;5096841;28;20171;-41
2024/01/26 01:03:53;;;;;;;7.80;6.40;;;10.30;99.90;;;;;;5095329;28;20182;-43
2024/01/26 01:06:19;;;;;;;9.03;6.37;;;10.30;99.90;;;;;;5096768;28;20190;-42
2024/01/26 01:08:48;;;;;;;9.57;6.13;;;10.30;99.90;;;;;;5096817;28;20182;-43
2024/01/26 01:11:13;;;;;;;7.83;6.17;;;10.30;99.90;;;;;;5096529;28;20175;-44
2024/01/26 01:13:43;;;;;;;9.07;7.07;;;10.30;99.90;;;;;;5096414;28;20194;-43
2024/01/26 01:16:12;;;;;;;9.60;7.20;;;10.30;99.90;;;;;;5096865;28;20197;-43
2024/01/26 01:18:37;;;;;;;11.83;7.17;;;10.30;99.90;;;;;;5096462;28;20191;-42
2024/01/26 01:21:15;;;;;;;9.60;6.13;;;10.30;99.90;;;;;;5096240;28;20535;-44
2024/01/26 01:23:40;;;;;;;6.97;5.43;;;10.30;99.90;;;;;;5096431;28;20190;-42
2024/01/26 01:26:06;;;;;;;9.93;6.60;;;10.30;99.90;;;;;;5096149;28;20195;-42
2024/01/26 01:28:35;;;;;;;10.10;6.83;;;10.30;99.90;;;;;;5094642;28;20199;-41
2024/01/26 01:31:00;;;;;;;11.20;6.60;;;10.20;99.90;;;;;;5096390;28;20206;-42
2024/01/26 01:33:26;;;;;;;9.07;6.70;;;10.30;99.90;;;;;;5096014;28;20297;-43
2024/01/26 01:35:52;;;;;;;8.37;6.63;;;10.20;99.90;;;;;;5095967;28;20583;-42
2024/01/26 01:38:18;;;;;;;7.17;5.90;;;10.20;99.90;;;;;;5094792;28;20744;-45
2024/01/26 01:40:44;;;;;;;13.10;6.43;;;10.20;99.90;;;;;;5096000;28;20207;-44
2024/01/26 01:43:17;;;;;;;7.93;5.43;;;10.20;99.90;;;;;;5096202;28;20191;-42
2024/01/26 01:45:42;;;;;;;8.87;6.47;;;10.20;99.90;;;;;;5095858;28;20197;-44
2024/01/26 01:48:11;;;;;;;7.37;5.97;;;10.20;99.90;;;;;;5095832;28;20183;-43
2024/01/26 01:50:37;;;;;;;7.60;5.90;;;10.20;99.90;;;;;;5095814;28;20530;-42
2024/01/26 01:53:04;;;;;;;10.80;6.10;;;10.20;99.90;;;;;;5094625;28;20190;-42
2024/01/26 01:55:30;;;;;;;11.23;5.90;;;10.20;99.90;;;;;;5096014;28;20217;-42
2024/01/26 01:57:57;;;;;;;9.17;6.37;;;10.20;99.90;;;;;;5095868;28;20189;-42
2024/01/26 02:00:24;;;;;;;10.90;6.90;;;10.30;99.90;;;;;;5095677;28;20190;-41
2024/01/26 02:02:55;;;;;;;11.40;6.30;;;10.30;99.90;;;;;;5095448;28;20542;-44
2024/01/26 02:05:21;;;;;;;11.77;6.17;;;10.30;99.90;;;;;;5095434;28;20228;-44
2024/01/26 02:07:49;;;;;;;8.43;6.50;;;10.20;99.90;;;;;;5095388;28;20183;-42
2024/01/26 02:10:15;;;;;;;11.33;6.57;;;10.20;99.90;;;;;;5095642;28;20191;-43
2024/01/26 02:16:02;;;;;;;7.30;5.60;;;10.20;99.90;;;;;;5095266;28;20622;-44
2024/01/26 02:18:28;;;;;;;7.20;5.13;;;10.20;99.90;;;;;;5095595;28;20183;-44
2024/01/26 02:20:54;;;;;;;7.23;4.70;;;10.20;99.90;;;;;;5095519;28;20185;-43
2024/01/26 02:23:23;;;;;;;6.67;4.47;;;10.20;99.90;;;;;;5093961;28;20228;-48
2024/01/26 02:25:49;;;;;;;5.67;4.30;;;10.20;99.90;;;;;;5094916;28;20553;-47
2024/01/26 02:28:15;;;;;;;5.57;3.87;;;10.20;99.90;;;;;;5094737;28;20202;-46
2024/01/26 02:30:40;;;;;;;4.37;3.67;;;10.30;99.90;;;;;;5094071;28;20183;-47
2024/01/26 02:33:06;;;;;;;9.70;5.00;;;10.30;99.90;;;;;;5095454;28;20261;-46
2024/01/26 02:35:31;;;;;;;5.20;4.30;;;10.20;99.90;;;;;;5094865;28;20210;-49
2024/01/26 02:37:57;;;;;;;5.10;4.60;;;10.30;99.90;;;;;;5094840;28;20177;-47
2024/01/26 02:40:22;;;;;;;6.97;4.70;;;10.20;99.90;;;;;;5094545;28;20189;-46
2024/01/26 02:42:51;;;;;;;6.13;5.27;;;10.20;99.90;;;;;;5093463;28;20260;-47
2024/01/26 02:45:16;;;;;;;7.33;5.47;;;10.20;99.90;;;;;;5094574;28;20228;-47
2024/01/26 02:47:46;;;;;;;7.87;5.80;;;10.20;99.90;;;;;;5094836;28;20302;-47
2024/01/26 02:50:15;;;;;;;10.67;5.37;;;10.20;99.90;;;;;;5094728;28;20249;-47
2024/01/26 02:52:43;;;;;;;7.30;5.20;;;10.20;99.90;;;;;;5094535;28;20182;-47
2024/01/26 02:55:09;;;;;;;8.40;5.33;;;10.10;99.90;;;;;;5094616;28;20203;-48
2024/01/26 02:57:35;;;;;;;7.63;5.70;;;10.10;99.90;;;;;;5094415;28;20270;-48
2024/01/26 03:00:00;;;;;;;6.87;5.23;;;10.10;99.90;;;;;;5094403;28;20207;-47
2024/01/26 03:02:26;;;;;;;11.30;5.17;;;10.10;99.90;;;;;;5094282;28;20203;-47
2024/01/26 03:04:51;;;;;;;7.83;4.97;;;10.10;99.90;;;;;;5093081;28;20209;-48
2024/01/26 03:07:17;;;;;;;6.63;4.80;;;10.10;99.90;;;;;;5094423;28;20205;-48
2024/01/26 03:09:46;;;;;;;7.57;4.40;;;10.10;99.90;;;;;;5094893;28;20619;-45
2024/01/26 03:12:11;;;;;;;8.67;5.40;;;10.10;99.90;;;;;;5094554;28;20215;-48
2024/01/26 03:14:37;;;;;;;5.60;4.20;;;10.10;99.90;;;;;;5094089;28;20689;-48
2024/01/26 03:17:07;;;;;;;6.03;4.23;;;10.10;99.90;;;;;;5094009;28;20251;-49
2024/01/26 03:19:35;;;;;;;6.20;4.73;;;10.10;99.90;;;;;;5094238;28;20178;-46
2024/01/26 03:22:03;;;;;;;6.07;4.10;;;10.10;99.90;;;;;;5094071;28;20183;-47
2024/01/26 03:24:29;;;;;;;9.17;4.13;;;10.10;99.90;;;;;;5094252;28;20263;-48
2024/01/26 03:26:56;;;;;;;6.87;4.60;;;10.10;99.90;;;;;;5094175;28;20613;-47
2024/01/26 03:29:23;;;;;;;4.00;3.50;;;10.10;99.90;;;;;;5093913;28;20303;-46
2024/01/26 03:31:49;;;;;;;4.43;3.47;;;10.10;99.90;;;;;;5093823;28;20214;-47
2024/01/26 03:34:21;;;;;;;4.83;3.30;;;10.10;99.90;;;;;;5092273;28;20291;-47
2024/01/26 03:36:47;;;;;;;5.53;3.37;;;10.00;99.90;;;;;;5093677;28;20195;-47
2024/01/26 03:39:12;;;;;;;3.67;3.33;;;10.00;99.90;;;;;;5094010;28;20183;-49
2024/01/26 03:41:41;;;;;;;5.23;3.43;;;10.00;99.90;;;;;;5093674;28;20175;-47
2024/01/26 03:44:07;;;;;;;3.67;3.27;;;10.00;99.90;;;;;;5093794;28;20193;-46
2024/01/26 03:46:34;;;;;;;3.93;3.10;;;10.00;99.90;;;;;;5093919;28;20564;-47
2024/01/26 03:49:00;;;;;;;4.90;3.30;;;10.00;99.90;;;;;;5093692;28;20581;-48
2024/01/26 03:51:36;;;;;;;3.07;2.57;;;10.00;99.90;;;;;;5092642;28;20187;-46
2024/01/26 03:54:02;;;;;;;3.07;2.27;;;10.00;99.90;;;;;;5093485;28;20207;-47
2024/01/26 03:56:27;;;;;;;7.40;2.57;;;10.00;99.90;;;;;;5093412;28;20727;-47
2024/01/26 03:58:53;;;;;;;5.87;2.57;;;10.00;99.90;;;;;;5093599;28;20562;-46
2024/01/26 04:01:19;;;;;;;2.10;1.90;;;10.00;99.90;;;;;;5093704;28;20177;-48
2024/01/26 04:03:45;;;;;;;3.97;2.10;;;10.00;99.90;;;;;;5093361;28;20265;-47
2024/01/26 04:06:11;;;;;;;3.30;2.33;;;10.00;99.90;;;;;;5092116;28;20222;-48
2024/01/26 04:08:36;;;;;;;3.20;2.23;;;10.00;99.90;;;;;;5093347;28;20171;-50
2024/01/26 04:11:02;;;;;;;3.03;2.50;;;9.90;99.90;;;;;;5093422;28;20170;-46
2024/01/26 04:13:29;;;;;;;3.07;2.30;;;9.90;99.90;;;;;;5093184;28;20190;-48
2024/01/26 04:15:55;;;;;;;3.63;2.10;;;9.90;99.90;;;;;;5091945;28;20234;-47
2024/01/26 04:18:21;;;;;;;2.20;1.90;;;10.00;99.90;;;;;;5093310;28;20188;-47
2024/01/26 04:20:51;;;;;;;3.70;2.30;;;9.90;99.90;;;;;;5093259;28;20182;-49
2024/01/26 04:23:17;;;;;;;4.30;2.40;;;10.00;99.90;;;;;;5093822;28;20179;-47
2024/01/26 04:25:42;;;;;;;3.43;2.27;;;10.00;99.90;;;;;;5093141;28;20208;-48
2024/01/26 04:28:08;;;;;;;3.97;2.13;;;10.10;99.90;;;;;;5093380;28;20244;-47
2024/01/26 04:30:42;;;;;;;2.37;2.10;;;10.10;99.90;;;;;;5093447;28;20254;-48
2024/01/26 04:33:07;;;;;;;5.13;2.33;;;10.10;99.90;;;;;;5092408;28;20174;-48
2024/01/26 04:35:33;;;;;;;2.57;2.37;;;10.10;99.90;;;;;;5092939;28;20281;-47
2024/01/26 04:37:58;;;;;;;4.53;2.57;;;10.10;99.90;;;;;;5093141;28;20181;-47
2024/01/26 04:40:24;;;;;;;5.77;2.57;;;10.10;99.90;;;;;;5093097;28;20182;-47
2024/01/26 04:42:50;;;;;;;3.00;2.23;;;10.10;99.90;;;;;;5093052;28;20184;-47
2024/01/26 04:45:27;;;;;;;4.10;2.73;;;10.10;99.90;;;;;;5093019;28;20182;-49
2024/01/26 04:47:53;;;;;;;3.30;2.50;;;10.10;99.90;;;;;;5093324;28;20182;-48
2024/01/26 04:50:19;;;;;;;5.03;2.83;;;10.10;99.90;;;;;;5093267;28;20593;-47
2024/01/26 04:52:44;;;;;;;4.37;2.97;;;10.10;99.90;;;;;;5093036;28;20222;-49
2024/01/26 04:55:11;;;;;;;3.67;2.83;;;10.10;99.90;;;;;;5092893;28;20690;-47
2024/01/26 04:57:37;;;;;;;3.90;3.03;;;10.10;99.90;;;;;;5093180;28;20179;-48
2024/01/26 05:00:03;;;;;;;4.33;3.17;;;10.10;99.90;;;;;;5093190;28;20267;-47
2024/01/26 05:02:29;;;;;;;3.63;2.83;;;10.10;99.90;;;;;;5092942;28;20183;-47
2024/01/26 05:04:54;;;;;;;4.50;3.10;;;10.10;99.90;;;;;;5096603;28;20232;-47
2024/01/26 05:07:20;;;;;;;3.90;2.93;;;10.00;99.90;;;;;;5096570;28;20200;-48
2024/01/26 05:09:46;;;;;;;5.63;3.57;;;10.00;99.90;;;;;;5096857;28;20185;-47
2024/01/26 05:12:12;;;;;;;5.30;2.80;;;10.00;99.90;;;;;;5095407;28;20179;-47
2024/01/26 05:14:38;;;;;;;2.90;2.67;;;9.90;99.90;;;;;;5096346;28;20231;-47
2024/01/26 05:17:03;;;;;;;3.07;2.77;;;9.90;99.90;;;;;;5096406;28;20256;-48
2024/01/26 05:19:29;;;;;;;4.17;2.93;;;9.80;99.90;;;;;;5096594;28;20217;-48
2024/01/26 05:21:54;;;;;;;5.30;3.17;;;9.80;99.90;;;;;;5096598;28;20175;-45
2024/01/26 05:24:20;;;;;;;4.27;3.10;;;9.80;99.90;;;;;;5096266;28;20181;-47
2024/01/26 05:26:47;;;;;;;5.70;2.80;;;9.70;99.90;;;;;;5096367;28;20208;-48
2024/01/26 05:29:19;;;;;;;4.93;2.93;;;9.70;99.90;;;;;;5096058;28;20199;-49
2024/01/26 05:31:52;;;;;;;3.67;3.10;;;9.60;99.90;;;;;;5096157;28;20206;-47
2024/01/26 05:34:18;;;;;;;6.13;3.20;;;9.60;99.90;;;;;;5095968;28;20700;-49
2024/01/26 05:36:43;;;;;;;6.20;2.90;;;9.60;99.90;;;;;;5096011;28;20206;-49
2024/01/26 05:39:10;;;;;;;5.50;3.03;;;9.50;99.90;;;;;;5095963;28;20171;-48
2024/01/26 05:41:45;;;;;;;4.30;3.03;;;9.50;99.90;;;;;;5096197;28;20557;-48
2024/01/26 05:44:10;;;;;;;2.90;2.60;;;9.50;99.90;;;;;;5095977;28;20181;-48
2024/01/26 05:46:36;;;;;;;4.87;2.60;;;9.50;99.90;;;;;;5095779;28;20228;-48
2024/01/26 05:49:02;;;;;;;6.17;2.80;;;9.50;99.90;;;;;;5094942;28;20201;-47
2024/01/26 05:51:27;;;;;;;6.03;3.13;;;9.40;99.90;;;;;;5096120;28;20183;-48
2024/01/26 05:53:56;;;;;;;4.93;2.70;;;9.40;99.90;;;;;;5095905;28;20239;-49
2024/01/26 05:56:24;;;;;;;4.93;3.00;;;9.40;99.90;;;;;;5095658;28;20195;-47
2024/01/26 05:58:53;;;;;;;4.63;2.87;;;9.40;99.90;;;;;;5095834;28;20300;-47
2024/01/26 06:01:19;;;;;;;3.30;2.53;;;9.40;99.90;;;;;;5095951;28;20178;-46
2024/01/26 06:03:45;;;;;;;3.03;2.47;;;9.40;99.90;;;;;;5095580;28;20173;-47
2024/01/26 06:06:12;;;;;;;3.63;3.07;;;9.50;99.90;;;;;;5095374;28;20208;-49
2024/01/26 06:08:42;;;;;;;5.20;2.93;;;9.50;99.90;;;;;;5094357;28;20195;-47
2024/01/26 06:11:09;;;;;;;3.60;2.90;;;9.50;99.90;;;;;;5095660;28;20179;-46
2024/01/26 06:13:35;;;;;;;3.80;2.50;;;9.50;99.90;;;;;;5095202;28;20243;-48
2024/01/26 06:16:00;;;;;;;4.97;2.50;;;9.50;99.90;;;;;;5095196;28;20195;-47
2024/01/26 06:18:29;;;;;;;3.63;2.47;;;9.60;99.90;;;;;;5095809;28;20643;-47
2024/01/26 06:20:55;;;;;;;3.33;2.80;;;9.60;99.90;;;;;;5095061;28;20647;-47
2024/01/26 06:23:23;;;;;;;4.53;2.77;;;9.60;99.90;;;;;;5095161;28;20216;-49
2024/01/26 06:25:49;;;;;;;4.40;2.47;;;9.60;99.90;;;;;;5095029;28;20203;-47
2024/01/26 06:28:15;;;;;;;4.37;2.20;;;9.60;99.90;;;;;;5095082;28;20252;-46
2024/01/26 06:30:40;;;;;;;7.60;2.67;;;9.70;99.90;;;;;;5095172;28;20159;-49
2024/01/26 06:33:06;;;;;;;3.93;2.40;;;9.70;99.90;;;;;;5095013;28;20265;-46
2024/01/26 06:35:31;;;;;;;4.60;2.30;;;9.70;99.90;;;;;;5094777;28;20242;-48
2024/01/26 06:37:57;;;;;;;4.00;2.37;;;9.80;99.90;;;;;;5095219;28;20194;-49
2024/01/26 06:40:23;;;;;;;3.10;2.23;;;9.80;99.90;;;;;;5095143;28;20186;-49
2024/01/26 06:42:52;;;;;;;5.07;1.97;;;9.80;99.90;;;;;;5093799;28;20629;-47
2024/01/26 06:45:18;;;;;;;3.23;1.80;;;9.90;99.90;;;;;;5095036;28;20186;-49
2024/01/26 06:47:43;;;;;;;4.33;1.80;;;9.90;99.90;;;;;;5093461;28;20304;-47
2024/01/26 06:50:09;;;;;;;2.23;1.73;;;10.00;99.90;;;;;;5094989;28;20179;-47
2024/01/26 06:52:38;;;;;;;2.37;1.93;;;10.00;99.90;;;;;;5095220;28;20677;-45
2024/01/26 06:55:04;;;;;;;4.40;1.90;;;10.10;99.90;;;;;;5093546;28;20217;-48
2024/01/26 06:57:29;;;;;;;4.63;1.63;;;10.10;99.90;;;;;;5093227;28;20212;-48
2024/01/26 06:59:55;;;;;;;3.10;1.70;;;10.10;99.90;;;;;;5094493;28;20202;-47
2024/01/26 07:02:21;;;;;;;3.70;1.50;;;10.10;99.90;;;;;;5093609;28;20649;-48
2024/01/26 07:04:49;;;;;;;2.40;1.70;;;10.20;99.90;;;;;;5094632;28;20527;-45
2024/01/26 07:07:15;;;;;;;4.07;1.90;;;10.20;99.90;;;;;;5094579;28;20209;-47
2024/01/26 07:09:41;;;;;;;5.13;1.90;;;10.30;99.90;;;;;;5094628;28;20694;-48
2024/01/26 07:12:06;;;;;;;2.67;2.00;;;10.20;99.90;;;;;;5093110;28;20186;-48
2024/01/26 07:14:32;;;;;;;3.80;2.20;;;10.30;99.90;;;;;;5094424;28;20217;-49
2024/01/26 07:16:59;;;;;;;4.53;2.37;;;10.20;99.90;;;;;;5094140;28;20200;-49
2024/01/26 07:19:29;;;;;;;2.47;1.90;;;10.30;99.90;;;;;;5094238;28;20174;-48
2024/01/26 07:21:58;;;;;;;4.17;2.40;;;10.40;99.90;;;;;;5094376;28;20188;-49
2024/01/26 07:24:24;;;;;;;4.20;2.67;;;10.40;99.90;;;;;;5094009;28;20666;-47
2024/01/26 07:26:52;;;;;;;5.50;2.40;;;10.40;99.90;;;;;;5094489;28;20237;-49
2024/01/26 07:29:18;;;;;;;2.77;2.17;;;10.50;99.90;;;;;;5094619;28;20195;-48
2024/01/26 07:31:45;;;;;;;7.53;2.47;;;10.50;99.90;;;;;;5093169;28;20278;-48
2024/01/26 07:34:10;;;;;;;5.70;2.90;;;10.50;99.90;;;;;;5093708;28;20575;-48
2024/01/26 07:36:36;;;;;;;5.73;2.87;;;10.50;99.90;;;;;;5094410;28;20283;-48
2024/01/26 07:39:05;;;;;;;3.00;2.37;;;10.50;99.90;;;;;;5093880;28;20183;-47
2024/01/26 07:41:31;;;;;;;3.43;2.60;;;10.50;99.90;;;;;;5094092;28;20204;-48
2024/01/26 07:43:56;;;;;;;4.23;2.73;;;10.50;99.90;;;;;;5094137;28;20181;-47
2024/01/26 07:46:22;;;;;;;5.13;2.53;;;10.50;99.90;;;;;;5094250;28;20195;-49
2024/01/26 07:48:49;;;;;;;5.80;2.80;;;10.50;99.90;;;;;;5093668;28;20265;-47
2024/01/26 07:51:15;;;;;;;6.23;3.00;;;10.50;99.90;;;;;;5093936;28;20174;-46
2024/01/26 07:53:41;;;;;;;2.80;2.30;;;10.50;99.90;;;;;;5093594;28;20179;-50
2024/01/26 07:56:07;;;;;;;2.40;2.00;;;10.50;99.90;;;;;;5092643;28;20193;-45
2024/01/26 07:58:33;;;;;;;3.53;2.17;;;10.60;99.90;;;;;;5092484;28;20178;-50
2024/01/26 08:01:01;;;;;;;2.93;2.00;;;10.50;99.90;;;;;;5093799;28;20257;-48
2024/01/26 08:03:28;;;;;;;3.73;2.60;;;10.60;99.90;;;;;;5094062;28;20177;-46
2024/01/26 08:05:54;;;;;;;3.03;1.90;;;10.60;99.90;;;;;;5093363;28;20187;-46
2024/01/26 08:08:20;;;;;;;2.73;2.03;;;10.60;99.90;;;;;;5093812;28;20642;-48
2024/01/26 08:10:45;;;;;;;4.40;2.37;;;10.60;99.90;;;;;;5093490;28;20696;-46
2024/01/26 08:13:12;;;;;;;3.43;2.20;;;10.60;99.90;;;;;;5092264;28;20180;-46
2024/01/26 08:15:38;;;;;;;2.53;1.97;;;10.60;99.90;;;;;;5093578;28;20255;-46
2024/01/26 08:18:04;;;;;;;2.73;2.10;;;10.60;99.90;;;;;;5093621;28;20743;-47
2024/01/26 08:20:29;;;;;;;5.00;2.30;;;10.60;99.90;;;;;;5093461;28;20175;-46
2024/01/26 08:22:56;;;;;;;2.60;2.03;;;10.70;99.90;;;;;;5093547;28;20258;-45
2024/01/26 08:25:21;;;;;;;2.13;1.67;;;10.70;99.90;;;;;;5093204;28;20674;-46
2024/01/26 08:27:47;;;;;;;2.57;1.77;;;10.70;99.90;;;;;;5093510;28;20174;-46
2024/01/26 08:30:22;;;;;;;2.40;1.70;;;10.60;99.90;;;;;;5091999;28;20194;-48
2024/01/26 08:32:48;;;;;;;2.10;1.43;;;10.70;99.90;;;;;;5093558;28;20650;-48
2024/01/26 08:35:14;;;;;;;4.37;1.43;;;10.70;99.90;;;;;;5091990;28;20206;-48
2024/01/26 08:37:39;;;;;;;1.43;1.33;;;10.70;99.90;;;;;;5094707;28;20652;-49
2024/01/26 08:40:06;;;;;;;1.90;1.67;;;10.70;99.90;;;;;;5097469;28;20525;-48
2024/01/26 08:42:33;;;;;;;2.30;1.37;;;10.80;99.90;;;;;;5095854;28;20175;-47
2024/01/26 08:45:06;;;;;;;1.50;1.20;;;10.80;99.90;;;;;;5095681;28;20546;-47
2024/01/26 08:47:32;;;;;;;2.00;1.40;;;10.80;99.90;;;;;;5097299;28;20203;-48
2024/01/26 08:49:57;;;;;;;1.40;1.13;;;10.90;99.90;;;;;;5097012;28;20535;-48
2024/01/26 08:52:23;;;;;;;1.30;1.07;;;10.90;99.90;;;;;;5097048;28;20665;-47
2024/01/26 08:54:48;;;;;;;1.90;1.33;;;10.90;99.90;;;;;;5096772;28;20673;-48
2024/01/26 08:57:14;;;;;;;2.57;1.23;;;11.00;99.90;;;;;;5096644;28;20206;-47
2024/01/26 08:59:40;;;;;;;1.53;1.20;;;11.00;99.90;;;;;;5096778;28;20171;-47
2024/01/26 09:02:07;;;;;;;1.57;1.27;;;11.00;99.90;;;;;;5095850;28;20262;-47
2024/01/26 09:04:33;;;;;;;1.97;1.73;;;11.00;99.90;;;;;;5095474;28;20671;-46
2024/01/26 09:06:59;;;;;;;1.40;1.20;;;11.00;99.90;;;;;;5096640;28;20194;-49
2024/01/26 09:09:24;;;;;;;1.93;1.50;;;11.00;99.90;;;;;;5096108;28;20231;-47
2024/01/26 09:11:59;;;;;;;1.13;1.03;;;11.00;99.90;;;;;;5096854;28;20206;-47
2024/01/26 09:14:25;;;;;;;1.30;1.17;;;11.10;99.90;;;;;;5096523;28;20198;-47
2024/01/26 09:16:51;;;;;;;1.33;1.20;;;11.00;99.90;;;;;;5096480;28;20197;-47
2024/01/26 09:19:17;;;;;;;4.23;1.13;;;11.00;99.90;;;;;;5095446;28;20203;-46
2024/01/26 09:21:43;;;;;;;3.47;1.80;;;11.00;99.90;;;;;;5097016;28;20220;-46
2024/01/26 09:24:09;;;;;;;2.47;1.53;;;11.00;99.90;;;;;;5096411;28;20186;-46
2024/01/26 09:26:35;;;;;;;5.77;1.90;;;11.00;99.90;;;;;;5096250;28;20230;-47
2024/01/26 09:29:01;;;;;;;2.53;1.80;;;11.10;99.90;;;;;;5096354;28;20559;-48
2024/01/26 09:31:26;;;;;;;3.60;1.80;;;11.10;99.90;;;;;;5096445;28;20183;-47
2024/01/26 09:33:52;;;;;;;3.53;1.90;;;11.10;99.90;;;;;;5096203;28;20243;-47
2024/01/26 09:36:17;;;;;;;1.60;1.50;;;11.10;99.90;;;;;;5096076;28;20199;-48
2024/01/26 09:38:45;;;;;;;2.13;1.67;;;11.10;99.90;;;;;;5096130;28;20197;-47
2024/01/26 09:41:12;;;;;;;2.10;1.67;;;11.10;99.90;;;;;;5096398;28;20189;-47
2024/01/26 09:43:41;;;;;;;2.40;1.83;;;11.10;99.90;;;;;;5096102;28;20232;-46
2024/01/26 09:46:08;;;;;;;3.17;1.70;;;11.10;99.90;;;;;;5096156;28;20199;-48
2024/01/26 09:48:34;;;;;;;4.23;2.00;;;11.20;99.90;;;;;;5095837;28;20186;-49
2024/01/26 09:51:04;;;;;;;3.80;1.47;;;11.20;99.90;;;;;;5094325;28;20183;-46
2024/01/26 09:53:31;;;;;;;3.10;2.13;;;11.20;99.90;;;;;;5096431;28;20168;-48
2024/01/26 09:55:59;;;;;;;1.50;1.40;;;11.20;99.90;;;;;;5095873;28;20247;-47
2024/01/26 09:58:25;;;;;;;1.77;1.63;;;11.20;99.90;;;;;;5095817;28;20195;-47
2024/01/26 10:00:54;;;;;;;1.17;0.80;;;11.20;99.90;;;;;;5094740;28;20250;-47
2024/01/26 10:03:23;;;;;;;1.70;1.50;;;11.20;99.90;;;;;;5096440;28;20171;-47
2024/01/26 10:05:53;;;;;;;4.67;2.17;;;11.20;99.90;;;;;;5096053;28;20674;-46
2024/01/26 10:08:19;;;;;;;2.17;1.67;;;11.20;99.90;;;;;;5096182;28;20222;-46
2024/01/26 10:10:45;;;;;;;3.10;2.23;;;11.20;99.90;;;;;;5096312;28;20214;-47
2024/01/26 10:13:11;;;;;;;1.80;1.60;;;11.20;99.90;;;;;;5096039;28;20181;-44
2024/01/26 10:15:36;;;;;;;1.47;1.30;;;11.20;99.90;;;;;;5095314;28;20332;-41
2024/01/26 10:18:02;;;;;;;1.10;1.00;;;11.20;99.90;;;;;;5095628;28;20171;-41
2024/01/26 10:20:28;;;;;;;2.40;2.20;;;11.20;99.90;;;;;;5095336;28;20246;-42
2024/01/26 10:22:54;;;;;;;2.00;1.83;;;11.30;99.90;;;;;;5095639;28;20203;-42
2024/01/26 10:25:20;;;;;;;3.00;1.43;;;11.30;99.90;;;;;;5095354;28;20183;-42
2024/01/26 10:27:46;;;;;;;2.37;1.80;;;11.30;99.90;;;;;;5093850;28;20179;-41
2024/01/26 10:30:13;;;;;;;5.67;1.80;;;11.30;99.90;;;;;;5095085;28;20642;-42
2024/01/26 10:32:39;;;;;;;1.00;0.90;;;11.30;99.90;;;;;;5093818;28;20179;-43
2024/01/26 10:35:08;;;;;;;3.47;2.03;;;11.40;99.90;;;;;;5096285;28;20199;-41
2024/01/26 10:37:38;;;;;;;5.37;2.53;;;11.40;99.90;;;;;;5097642;28;20190;-42
2024/01/26 10:40:07;;;;;;;4.63;1.93;;;11.30;99.90;;;;;;5094957;28;20167;-40
2024/01/26 10:42:36;;;;;;;3.90;2.20;;;11.40;99.90;;;;;;5092971;28;20235;-43
2024/01/26 10:45:09;;;;;;;4.00;2.10;;;11.40;99.90;;;;;;5094820;28;20228;-43
2024/01/26 10:47:38;;;;;;;5.90;1.90;;;11.30;99.90;;;;;;5095390;28;20160;-44
2024/01/26 10:50:06;;;;;;;2.67;1.23;;;11.10;99.90;;;;;;5094962;28;20216;-40
2024/01/26 10:52:35;;;;;;;3.47;1.37;;;11.00;99.90;;;;;;5095010;28;20179;-42
2024/01/26 10:55:06;;;;;;;4.00;1.10;;;11.00;99.90;;;;;;5093983;28;20647;-41
2024/01/26 10:58:22;;;;;;;4.30;1.10;;;10.70;99.90;;;;;;5094540;28;20183;-43
2024/01/26 11:00:52;;;;;;;5.87;1.57;;;10.40;99.90;;;;;;5094213;28;20175;-42
2024/01/26 11:03:22;;;;;;;7.00;1.10;;;10.00;99.90;;;;;;5093721;28;20163;-43
2024/01/26 11:05:55;;;;;;;8.43;1.70;;;10.00;99.90;;;;;;5094597;28;20278;-43
2024/01/26 11:08:27;;;;;;;8.53;1.63;;;10.00;99.90;;;;;;5094405;28;20198;-41
2024/01/26 11:10:59;;;;;;;5.67;1.57;;;10.00;99.90;;;;;;5093903;28;20186;-43
2024/01/26 11:13:24;;;;;;;6.33;1.47;;;10.00;99.90;;;;;;5094491;28;20256;-41
2024/01/26 11:15:51;;;;;;;6.80;1.60;;;10.00;99.90;;;;;;5094348;28;20218;-42
2024/01/26 11:18:26;;;;;;;7.43;1.23;;;10.00;99.90;;;;;;5092891;28;20182;-43
2024/01/26 11:20:52;;;;;;;6.77;1.80;;;10.00;99.90;;;;;;5094273;28;20519;-43
2024/01/26 11:23:22;;;;;;;4.13;1.40;;;10.10;99.90;;;;;;5092988;28;20179;-44
2024/01/26 11:25:51;;;;;;;4.47;1.00;;;10.10;99.90;;;;;;5075799;28;20229;-42
2024/01/26 11:28:25;;;;;;;3.30;1.33;;;10.20;99.90;;;;;;5094050;28;20186;-43
2024/01/26 11:30:53;;;;;;;5.10;1.47;;;10.20;99.90;;;;;;5093987;28;20167;-44
2024/01/26 11:33:21;;;;;;;6.63;1.33;;;10.20;99.90;;;;;;5094212;28;20177;-42
2024/01/26 11:35:47;;;;;;;8.80;1.67;;;10.30;99.90;;;;;;5093707;28;20199;-41
2024/01/26 11:38:18;;;;;;;7.40;1.90;;;10.40;99.90;;;;;;5093885;28;20173;-42
2024/01/26 11:40:45;;;;;;;5.30;1.03;;;10.50;99.90;;;;;;5094248;28;20245;-42
2024/01/26 11:43:11;;;;;;;11.17;1.43;;;10.60;99.90;;;;;;5094102;28;20167;-43
2024/01/26 11:45:45;;;;;;;5.67;1.43;;;10.70;99.90;;;;;;5092501;28;20293;-43
2024/01/26 11:48:14;;;;;;;7.77;1.73;;;10.80;99.90;;;;;;5093992;28;20171;-42
2024/01/26 11:50:43;;;;;;;7.07;1.60;;;10.80;99.90;;;;;;5093852;28;20187;-43
2024/01/26 11:53:10;;;;;;;4.87;1.20;;;10.80;99.90;;;;;;5093955;28;20179;-42
2024/01/26 11:55:38;;;;;;;12.60;1.97;;;10.90;99.90;;;;;;5093698;28;20248;-41
2024/01/26 11:58:06;;;;;;;3.43;1.03;;;10.90;99.90;;;;;;5092644;28;20229;-42
2024/01/26 12:00:35;;;;;;;10.80;1.20;;;10.90;99.90;;;;;;5093552;28;20199;-44
2024/01/26 12:03:07;;;;;;;7.07;1.40;;;10.90;99.90;;;;;;5093365;28;20189;-43
2024/01/26 12:05:37;;;;;;;2.73;0.73;;;10.90;99.90;;;;;;5093312;28;20298;-44
2024/01/26 12:08:06;;;;;;;4.77;1.30;;;10.80;99.90;;;;;;5092492;28;20179;-44
2024/01/26 12:10:35;;;;;;;3.43;1.07;;;10.80;99.90;;;;;;5093323;28;20218;-44
2024/01/26 12:13:03;;;;;;;2.67;0.80;;;10.70;99.90;;;;;;5092728;28;20163;-42
2024/01/26 12:15:37;;;;;;;4.07;1.07;;;10.70;99.90;;;;;;5093361;28;20315;-42
2024/01/26 12:18:09;;;;;;;3.57;0.70;;;10.60;99.90;;;;;;5093647;28;20166;-44
2024/01/26 12:20:35;;;;;;;7.03;1.20;;;10.50;99.90;;;;;;5093646;28;20167;-43
2024/01/26 12:23:01;;;;;;;5.30;0.80;;;10.50;99.90;;;;;;5093261;28;20216;-41
2024/01/26 12:25:27;;;;;;;6.03;0.93;;;10.50;99.90;;;;;;5093458;28;20642;-44
2024/01/26 12:27:54;;;;;;;10.03;1.13;;;10.50;99.90;;;;;;5093432;28;20175;-43
2024/01/26 12:30:20;;;;;;;4.77;1.10;;;10.50;99.90;;;;;;5093067;28;20190;-44
2024/01/26 12:32:46;;;;;;;5.57;1.43;;;10.60;99.90;;;;;;5093299;28;20182;-44
2024/01/26 12:35:11;;;;;;;3.00;0.57;;;10.60;99.90;;;;;;5092995;28;20199;-44
2024/01/26 12:37:37;;;;;;;9.20;1.80;;;10.60;99.90;;;;;;5094082;28;20171;-47
2024/01/26 12:40:06;;;;;;;7.87;1.53;;;10.50;99.90;;;;;;5093198;28;20197;-48
2024/01/26 12:42:38;;;;;;;3.73;1.00;;;10.50;99.90;;;;;;5093119;28;20651;-49
2024/01/26 12:45:04;;;;;;;5.43;1.27;;;10.50;99.90;;;;;;5093188;28;20175;-47
2024/01/26 12:47:29;;;;;;;4.73;1.10;;;10.50;99.90;;;;;;5093020;28;20282;-47
2024/01/26 12:49:55;;;;;;;5.80;1.17;;;10.40;99.90;;;;;;5093307;28;20167;-47